メインページ
METAR-TAF:

METAR-TAF

空港 :

バッファロー・ナイアガラ国際空港

バッファロー, ニューヨーク, アメリカ合衆国

緯度: 42-56-27N, 経度: 078-44-09W, 海抜: 220m

現時点の気象観測

当レポートは43分前の08:54(UTC)に作成
の風 5kt
気温 19°C
湿度 83%
気圧 1013 hPa
視程: 16.1km
高度11000ftの千切れ雲あり

METAR: KBUF 230854Z 35005KT 10SM BKN110 19/16 A2990 RMK AO2 SLP121 T01890161 53004

時間: 05:37 (09:37 UTC)

予報

当レポートは4時間2分前の05:35(UTC)に作成
予報は23日の 06時(UTC)から 24日の 06時(UTC)まで有効
の風 5kt
視程: 10km
高度3000ftの雲はほとんどない
高度8000ftの千切れ雲あり
23日の 0800時(UTC)から
変向風 3kt
視程: 10km
高度5000ftの雲は散在している
23日の 1000時(UTC)から
変向風 3kt
視程: 10km
高度6000ftの雲は散在している
23日の 1300時(UTC)から
変向風 3kt
視程: 10km
高度8000ftの雲は散在している

TAF: KBUF 230535Z 2306/2406 35005KT P6SM FEW030 BKN080 FM230800 VRB03KT P6SM SCT050 FM231000 VRB03KT P6SM SCT060 FM231300 VRB03KT P6SM SCT080

4,000以上の空港の気象観測と天気予報(METAR報とTAF報)

利用可能な観測所は地図上に黄色い丸と赤い丸で示す。

丸の上にカーソルを重ねると観測所名を参照できる。

次にクリックすると気象観測と天気予報を参照できる。

マップの切り替え:黒色「×」印の緑ボタンをクリックして拡大、「-」印の緑ボタンをクリックして縮小、緑色の三角印をクリックして隣りの地図に切り替え


METAR-TAF: